Kaministiqua — CFN4612 — position and weather

sailwx.info

Track history (hours):
 
Tides and Currents Weather Stations Pressure Air Temp Water Temp Dewpoint Dewpoint Depression Visibility Wind Speed Wind Dir Waves Ship Positions

Kaministiqua

Last reported at 2014-Sep-17 15:13 UTC. Time now 2014-Sep-17 17:40 UTC.
Position N 44°15' W 076°05'.

Length 223 m; draft 8.1 m.

Type: Cargo ship. MMSI: 316009457.

Date/timePositionNaut miles runAvg speedWind from/ knotsBaromVisibWave heightAir tempDewpointWater temp
2014-Sep-17 15:13N 44°15' W 076°05'7 8.3
2014-Sep-17 14:23N 44°12' W 076°14'911.1
2014-Sep-17 13:33N 44°06' W 076°24'1212.2
2014-Sep-17 12:33N 43°56' W 076°33'  
2014-Sep-10 11:14N 46°38' W 084°45'1212.1
2014-Sep-10 10:15N 46°28' W 084°34'16 4.3
2014-Sep-10 06:25N 46°21' W 084°12'6 7.0
2014-Sep-10 05:32N 46°16' W 084°07'7 7.4
2014-Sep-10 04:33N 46°10' W 084°03'1010.0
2014-Sep-10 03:33N 46°02' W 083°54'1211.5
2014-Sep-10 02:33N 45°51' W 083°49'  
Track history (hours):
 
Tides and Currents Weather Stations Pressure Air Temp Water Temp Dewpoint Dewpoint Depression Visibility Wind Speed Wind Dir Waves Ship Positions

Kaministiqua

Last reported at 2014-Sep-17 15:13 UTC. Time now 2014-Sep-17 17:40 UTC.
Position N 44°15' W 076°05'.

Length 223 m; draft 8.1 m.

Type: Cargo ship. MMSI: 316009457.

Date/timePositionNaut miles runAvg speedWind from/ knotsBaromVisibWave heightAir tempDewpointWater temp
2014-Sep-17 15:13N 44°15' W 076°05'7 8.3
2014-Sep-17 14:23N 44°12' W 076°14'911.1
2014-Sep-17 13:33N 44°06' W 076°24'1212.2
2014-Sep-17 12:33N 43°56' W 076°33'  
2014-Sep-10 11:14N 46°38' W 084°45'1212.1
2014-Sep-10 10:15N 46°28' W 084°34'16 4.3
2014-Sep-10 06:25N 46°21' W 084°12'6 7.0
2014-Sep-10 05:32N 46°16' W 084°07'7 7.4
2014-Sep-10 04:33N 46°10' W 084°03'1010.0
2014-Sep-10 03:33N 46°02' W 083°54'1211.5
2014-Sep-10 02:33N 45°51' W 083°49'  

Dump ship's entire track history